Latest Weather Observations for Cloncurry

IDQ60801

Issued at 4:05 pm EST Thursday 24 July 2014 (issued every 30 minutes, with the page automatically refreshed every 10 minutes)

About weather observations | Map of weather stations | Latest weather observations for QLD | Other Formats
Station Details ID: 029141 Name: CLONCURRY AIRPORT Lat: -20.67 Lon: 140.50 Height: 186.0 m
Data from the previous 72 hours. | See also: Recent months at Cloncurry
Date/Time
EST
Temp
°C
App
Temp
°C
Dew
Point
Rel
Hum
%
Delta-T
°C
Wind Press
QNH
hPa
Press
MSL
hPa
Rain
since 9 am
mm
Dir
 
Spd
km/h
Gust
km/h
Spd
kts
Gust
kts
24/04:00pm 29.2 23.3 -1.0 14 14.2 NNE 20 28 11 15 1013.7 1013.2 0.0
24/03:30pm 29.7 25.0 -1.6 13 14.6 NE 13 20 7 11 1013.8 - 0.0
24/03:00pm 29.2 24.1 -2.0 13 14.4 NNE 15 20 8 11 1013.9 1013.4 0.0
24/02:30pm 28.9 23.8 -2.3 13 14.3 NNE 15 24 8 13 1014.0 - 0.0
24/02:00pm 28.8 23.3 -2.3 13 14.3 NNE 17 26 9 14 1014.4 1013.9 0.0
24/01:30pm 28.4 23.5 -3.7 12 14.3 NNE 13 22 7 12 1014.9 - 0.0
24/01:00pm 27.7 22.3 -4.3 12 14.0 N 15 24 8 13 1015.5 1015.1 0.0
24/12:30pm 27.9 23.7 -4.1 12 14.1 NNE 9 15 5 8 1016.0 - 0.0
24/12:00pm 26.8 22.1 -4.9 12 13.6 NE 11 17 6 9 1016.4 1016.0 0.0
24/11:30am 26.9 22.7 -3.8 13 13.5 ENE 9 15 5 8 1016.8 - 0.0
24/11:00am 25.4 21.2 -4.0 14 12.7 WNW 9 15 5 8 1017.0 1016.6 0.0
24/10:30am 23.3 19.7 -3.9 16 11.6 SSW 6 9 3 5 1017.1 - 0.0
24/10:00am 22.1 19.1 -4.9 16 11.1 NW 2 6 1 3 1017.1 1016.7 0.0
24/09:30am 19.6 17.0 -4.6 19 9.8 CALM 0 0 0 0 1017.0 - 0.0
24/09:00am 16.5 12.8 -4.1 24 8.2 SW 6 9 3 5 1016.7 1016.3 0.0
24/08:30am 13.9 9.9 -5.3 26 7.2 S 7 11 4 6 1016.3 - 0.0
24/08:00am 10.9 6.9 -6.0 30 6.0 S 7 11 4 6 1016.0 1015.6 0.0
24/07:30am 8.7 3.5 -6.7 33 5.3 SSW 13 13 7 7 1015.6 - 0.0
24/07:00am 8.4 3.6 -6.5 34 5.1 S 11 13 6 7 1015.2 1014.8 0.0
24/06:30am 9.1 5.0 -7.1 31 5.5 S 7 9 4 5 1014.8 - 0.0
24/06:00am 9.3 5.1 -7.4 30 5.6 SSW 7 9 4 5 1014.6 1014.1 0.0
24/05:30am 9.8 4.6 -6.5 31 5.7 S 13 13 7 7 1014.4 - 0.0
24/05:00am 10.2 5.7 -6.6 30 5.9 S 9 11 5 6 1014.3 1013.8 0.0
24/04:30am 10.9 6.4 -6.4 29 6.1 S 9 11 5 6 1014.2 - 0.0
24/04:00am 10.4 5.9 -6.4 30 5.9 S 9 11 5 6 1014.3 1013.8 0.0
24/03:30am 11.0 7.2 -5.9 30 6.0 S 6 11 3 6 1014.2 - 0.0
24/03:00am 10.4 6.1 -5.2 33 5.6 SSW 9 11 5 6 1014.4 1013.9 0.0
24/02:30am 11.0 6.3 -5.5 31 6.0 S 11 13 6 7 1014.3 - 0.0
24/02:00am 11.3 7.0 -5.2 31 6.0 S 9 11 5 6 1014.5 1014.0 0.0
24/01:30am 11.8 7.5 -4.8 31 6.2 SSW 9 11 5 6 1014.5 - 0.0
24/01:00am 12.6 8.6 -5.4 28 6.6 S 7 11 4 6 1014.6 1014.1 0.0
24/12:30am 12.5 8.2 -5.0 29 6.5 S 9 11 5 6 1014.8 - 0.0
24/12:00am 11.8 7.6 -3.9 33 5.9 SSW 9 11 5 6 1014.8 1014.4 0.0
 
Date/Time
EST
Temp
°C
App
Temp
°C
Dew
Point
Rel
Hum
%
Delta-T
°C
Wind Press
QNH
hPa
Press
MSL
hPa
Rain
since 9 am
mm
Dir
 
Spd
km/h
Gust
km/h
Spd
kts
Gust
kts
23/11:30pm 12.3 9.8 -3.9 32 6.2 CALM 0 0 0 0 1014.8 - 0.0
23/11:00pm 13.3 10.3 -5.3 27 6.9 NNE 2 6 1 3 1015.0 1014.6 0.0
23/10:30pm 14.5 11.8 -5.8 24 7.6 CALM 0 6 0 3 1015.0 - 0.0
23/10:00pm 15.0 12.3 -5.9 23 7.8 CALM 0 0 0 0 1015.1 1014.7 0.0
23/09:30pm 16.4 13.7 -6.0 21 8.5 CALM 0 0 0 0 1015.1 - 0.0
23/09:00pm 17.3 12.9 -5.8 20 8.9 N 9 11 5 6 1015.1 1014.7 0.0
23/08:30pm 18.4 15.7 -5.6 19 9.4 CALM 0 0 0 0 1014.9 - 0.0
23/08:00pm 18.1 13.4 -5.2 20 9.2 S 11 13 6 7 1014.8 1014.4 0.0
23/07:30pm 20.7 17.2 -6.0 16 10.6 NE 4 7 2 4 1014.4 - 0.0
23/07:00pm 23.8 19.8 -5.3 14 12.1 NNE 7 7 4 4 1014.0 1013.5 0.0
23/06:30pm 25.8 21.5 -4.7 13 13.1 NNE 9 9 5 5 1013.8 - 0.0
23/06:00pm 27.2 23.3 -4.6 12 13.8 N 7 9 4 5 1013.4 1013.0 0.0
23/05:30pm 28.4 23.7 -4.9 11 14.5 N 11 15 6 8 1013.1 - 0.0
23/05:00pm 28.9 24.6 -4.5 11 14.7 NNW 9 15 5 8 1013.1 1012.7 0.0
23/04:30pm 29.0 24.0 -4.4 11 14.8 NW 13 20 7 11 1013.4 - 0.0
23/04:00pm 28.6 24.3 -4.7 11 14.6 N 9 13 5 7 1013.3 1012.9 0.0
23/03:30pm 28.9 24.6 -4.5 11 14.7 WNW 9 15 5 8 1013.3 - 0.0
23/03:00pm 28.4 24.5 -4.9 11 14.5 NW 7 13 4 7 1013.7 1013.2 0.0
23/02:30pm 28.3 23.2 -4.9 11 14.5 WSW 13 20 7 11 1013.9 - 0.0
23/02:00pm 28.3 24.1 -3.8 12 14.3 NNW 9 15 5 8 1014.2 1013.7 0.0
23/01:30pm 28.0 23.9 -3.0 13 14.0 N 9 17 5 9 1014.7 - 0.0
23/01:00pm 27.1 22.5 -3.7 13 13.6 NNE 11 15 6 8 1015.2 1014.8 0.0
23/12:30pm 26.3 22.6 -3.3 14 13.1 SSE 7 13 4 7 1015.7 - 0.0
23/12:00pm 25.2 21.7 -3.2 15 12.4 ESE 6 11 3 6 1016.1 1015.7 0.0
23/11:30am 24.3 20.6 -3.1 16 11.9 SE 7 11 4 6 1016.6 - 0.0
23/11:00am 23.6 19.8 -3.7 16 11.7 E 7 11 4 6 1017.2 1016.8 0.0
23/10:30am 22.4 18.2 -3.8 17 11.1 ESE 9 13 5 7 1017.4 - 0.0
23/10:00am 21.7 16.7 -4.4 17 10.8 ESE 13 17 7 9 1017.6 1017.2 0.0
23/09:30am 19.9 14.6 -7.5 15 10.5 S 13 15 7 8 1017.7 - 0.0
23/09:00am 17.2 12.1 -8.8 16 9.4 S 11 13 6 7 1017.8 1017.4 0.0
23/08:30am 14.4 9.7 -8.9 19 8.1 S 9 11 5 6 1017.6 - 0.0
23/08:00am 11.8 6.8 -8.6 23 6.9 S 11 13 6 7 1017.4 1017.0 0.0
23/07:30am 9.4 4.3 -9.6 25 6.1 S 11 13 6 7 1017.1 - 0.0
23/07:00am 9.7 3.8 -9.9 24 6.3 S 15 15 8 8 1017.0 1016.6 0.0
23/06:30am 10.2 4.7 -9.4 24 6.4 S 13 15 7 8 1016.8 - 0.0
23/06:00am 9.8 4.3 -9.3 25 6.2 S 13 15 7 8 1016.7 1016.3 0.0
23/05:30am 10.4 4.9 -9.3 24 6.5 S 13 15 7 8 1016.5 - 0.0
23/05:00am 10.6 5.1 -9.1 24 6.5 S 13 15 7 8 1016.4 1016.0 0.0
23/04:30am 10.4 4.9 -9.3 24 6.5 S 13 15 7 8 1016.3 - 0.0
23/04:00am 10.6 4.7 -9.6 23 6.6 S 15 15 8 8 1016.3 1015.9 0.0
23/03:30am 11.0 5.5 -9.3 23 6.7 S 13 15 7 8 1016.3 - 0.0
23/03:00am 11.2 5.7 -9.7 22 6.9 S 13 15 7 8 1016.3 1015.9 0.0
23/02:30am 11.5 6.0 -9.4 22 6.9 S 13 15 7 8 1016.5 - 0.0
23/02:00am 11.3 5.8 -9.6 22 6.9 S 13 13 7 7 1016.5 1016.1 0.0
23/01:30am 11.8 6.3 -9.2 22 7.0 S 13 15 7 8 1016.5 - 0.0
23/01:00am 12.7 7.3 -9.0 21 7.4 S 13 15 7 8 1016.6 1016.2 0.0
23/12:30am 11.9 6.7 -10.3 20 7.3 S 11 11 6 6 1016.5 - 0.0
23/12:00am 12.9 7.4 -9.5 20 7.5 S 13 13 7 7 1016.8 1016.4 0.0
 
Date/Time
EST
Temp
°C
App
Temp
°C
Dew
Point
Rel
Hum
%
Delta-T
°C
Wind Press
QNH
hPa
Press
MSL
hPa
Rain
since 9 am
mm
Dir
 
Spd
km/h
Gust
km/h
Spd
kts
Gust
kts
22/11:30pm 13.3 8.2 -9.2 20 7.7 S 11 13 6 7 1016.9 - 0.0
22/11:00pm 13.3 9.7 -7.9 22 7.4 SE 4 9 2 5 1017.1 1016.7 0.0
22/10:30pm 13.3 10.4 -7.9 22 7.5 CALM 0 0 0 0 1017.1 - 0.0
22/10:00pm 15.6 11.8 -9.3 17 8.7 SE 4 7 2 4 1017.1 1016.7 0.0
22/09:30pm 15.1 10.3 -10.5 16 8.7 SE 9 11 5 6 1016.9 - 0.0
22/09:00pm 17.5 12.7 -10.3 14 9.8 SE 9 11 5 6 1016.9 1016.5 0.0
22/08:30pm 18.3 13.5 -10.6 13 10.2 SE 9 13 5 7 1016.9 - 0.0
22/08:00pm 19.3 14.2 -9.8 13 10.6 SE 11 13 6 7 1016.8 1016.4 0.0
22/07:30pm 21.4 16.3 -9.1 12 11.5 SE 11 13 6 7 1016.6 - 0.0
22/07:00pm 22.5 17.0 -9.4 11 12.1 SE 13 15 7 8 1016.4 1016.0 0.0
22/06:30pm 23.7 18.3 -8.5 11 12.6 SE 13 15 7 8 1016.2 - 0.0
22/06:00pm 25.3 19.1 -8.5 10 13.4 ESE 17 19 9 10 1016.1 1015.7 0.0
22/05:30pm 26.2 20.1 -7.8 10 13.8 SE 17 20 9 11 1016.0 - 0.0
22/05:00pm 26.6 20.9 -7.5 10 14.0 SE 15 20 8 11 1015.8 1015.4 0.0
22/04:30pm 27.0 20.0 -7.2 10 14.1 ESE 22 28 12 15 1015.8 - 0.0
22/04:00pm 26.7 20.6 -7.4 10 14.0 SSE 17 22 9 12 1015.7 1015.3 0.0
22/03:30pm 26.8 21.1 -7.3 10 14.1 SSE 15 22 8 12 1015.9 - 0.0
22/03:00pm 27.0 22.1 -7.2 10 14.1 E 11 20 6 11 1016.1 1015.7 0.0
22/02:30pm 26.6 21.3 -7.5 10 14.0 SE 13 24 7 13 1016.5 - 0.0
22/02:00pm 25.8 20.4 -8.1 10 13.6 SE 13 24 7 13 1016.9 1016.5 0.0
22/01:30pm 25.9 19.2 -8.0 10 13.7 E 20 24 11 13 1017.4 - 0.0
22/01:00pm 25.7 19.0 -8.2 10 13.6 ESE 20 28 11 15 1018.1 1017.7 0.0
22/12:30pm 25.7 19.0 -8.2 10 13.6 SE 20 28 11 15 1018.6 - 0.0
22/12:00pm 24.7 17.8 -10.3 9 13.3 SE 20 32 11 17 1019.4 1019.0 0.0
22/11:30am 24.5 17.7 -9.1 10 13.1 SE 20 28 11 15 1019.9 - 0.0
22/11:00am 23.8 16.6 -9.6 10 12.8 ESE 22 30 12 16 1020.2 1019.8 0.0
22/10:30am 23.3 17.1 -8.8 11 12.4 SSE 17 24 9 13 1020.6 - 0.0
22/10:00am 21.0 15.6 -8.4 13 11.2 S 13 19 7 10 1020.7 1020.3 0.0
22/09:30am 18.7 13.0 -7.6 16 9.9 S 15 17 8 9 1020.7 - 0.0
22/09:00am 16.6 11.3 -7.1 19 8.8 S 13 17 7 9 1020.5 1020.1 0.0
22/08:30am 13.7 8.5 -5.9 25 7.2 S 13 15 7 8 1020.2 - 0.0
22/08:00am 11.2 6.1 -5.3 31 6.0 S 13 13 7 7 1019.8 1019.4 0.0
22/07:30am 9.0 3.7 -6.8 32 5.4 S 13 15 7 8 1019.7 - 0.0
22/07:00am 10.1 5.4 -5.0 34 5.4 S 11 13 6 7 1019.5 1019.1 0.0
22/06:30am 9.5 3.9 -5.9 33 5.4 S 15 17 8 9 1019.2 - 0.0
22/06:00am 10.2 5.0 -5.7 32 5.6 S 13 15 7 8 1019.0 1018.6 0.0
22/05:30am 10.7 6.0 -5.3 32 5.8 S 11 13 6 7 1019.0 - 0.0
22/05:00am 10.7 7.0 -4.9 33 5.7 SSW 6 7 3 4 1018.9 1018.5 0.0
22/04:30am 11.6 7.3 -4.5 32 6.0 SSW 9 11 5 6 1019.0 - 0.0
22/04:00am 11.4 6.3 -5.5 30 6.1 SSW 13 15 7 8 1019.3 1018.9 0.0
22/03:30am 11.9 6.7 -6.0 28 6.5 SSW 13 13 7 7 1019.3 - 0.0
22/03:00am 11.5 7.1 -6.3 28 6.3 SSW 9 13 5 7 1019.4 1019.0 0.0
22/02:30am 12.9 7.7 -6.6 25 7.0 S 13 15 7 8 1019.5 - 0.0
22/02:00am 13.0 7.8 -6.5 25 7.0 S 13 15 7 8 1019.6 1019.2 0.0
22/01:30am 13.3 8.0 -7.4 23 7.4 S 13 15 7 8 1019.5 - 0.0
22/01:00am 12.8 7.9 -7.2 24 7.1 S 11 13 6 7 1019.4 1019.0 0.0
22/12:30am 12.8 7.8 -7.8 23 7.2 S 11 13 6 7 1019.5 - 0.0
22/12:00am 14.5 9.6 -6.9 22 7.8 S 11 11 6 6 1019.6 1019.2 0.0
 
Date/Time
EST
Temp
°C
App
Temp
°C
Dew
Point
Rel
Hum
%
Delta-T
°C
Wind Press
QNH
hPa
Press
MSL
hPa
Rain
since 9 am
mm
Dir
 
Spd
km/h
Gust
km/h
Spd
kts
Gust
kts
21/11:30pm 14.4 10.2 -7.6 21 7.9 S 7 9 4 5 1019.7 - 0.0
21/11:00pm 15.5 10.5 -8.0 19 8.4 S 11 13 6 7 1019.8 1019.4 0.0
21/10:30pm 15.1 9.7 -9.0 18 8.5 SSW 13 15 7 8 1019.8 - 0.0
21/10:00pm 15.7 9.7 -11.7 14 9.1 SSW 15 15 8 8 1019.7 1019.3 0.0
21/09:30pm 16.3 10.7 -11.2 14 9.4 S 13 13 7 7 1019.7 - 0.0
21/09:00pm 16.2 10.5 -12.2 13 9.4 S 13 13 7 7 1019.7 1019.3 0.0
21/08:30pm 17.5 12.2 -12.2 12 10.0 S 11 13 6 7 1019.5 - 0.0
21/08:00pm 20.6 15.4 -10.9 11 11.3 SSW 11 13 6 7 1019.3 1018.9 0.0
21/07:30pm 19.9 14.2 -12.6 10 11.2 S 13 15 7 8 1018.8 - 0.0
21/07:00pm 20.8 16.0 -10.7 11 11.4 SSW 9 11 5 6 1018.3 1017.9 0.0
21/06:30pm 22.2 16.6 -10.8 10 12.1 SSW 13 15 7 8 1017.9 - 0.0
21/06:00pm 24.9 19.4 -10.1 9 13.4 SSW 13 15 7 8 1017.5 1017.1 0.0
21/05:30pm 26.4 20.8 -10.5 8 14.3 S 13 20 7 11 1017.2 - 0.0
21/05:00pm 27.2 21.7 -9.9 8 14.6 SSW 13 22 7 12 1017.1 1016.7 0.0
21/04:30pm 26.8 21.3 -10.2 8 14.5 S 13 20 7 11 1017.0 - 0.0

Other Formats:

Comma delimited format used in spreadsheet applications
http://www.bom.gov.au/fwo/IDQ60801/IDQ60801.94335.axf

JavaScript Object Notation format (JSON) in row-major order
http://www.bom.gov.au/fwo/IDQ60801/IDQ60801.94335.json